Detall de PIREP

Printer-friendly versionPDF version

[2014/02/16 11:48:00]
Flight IATA:CT0002
Pilot Number:012
Company ICAO:CAT
Aircraft Type:F50/A
PAX:50
Aircraft Registration:PAOB
Departing Airport: LFMT
Destination Airport: LFMP
Alternate Airport:LFBO
Online: VATSIM
Route:KELAM
Flight Level:F110
No Slew and time accel
No pause
Crash detect
Detect pilot in Cockpit between each 30 and 45 minutes
11:48 Zero fuel Weight: 37528 Lbs, Fuel Weight: 2623 Lbs
11:48 VATSIM:LFMT 161130Z 35004KT 320V020 CAVOK 12/04 Q1017 NOSIG
11:48 VATSIM:LFMP 161130Z 26008KT 9999 FEW033 BKN056 10/07 Q1017 NOSIG
11:48 VOICE CATALONIAN
11:53 Parking Brakes off
11:58 Take-off
11:58 Take off Weight: 40038 Lbs
11:58 Wind: 330º @ 006 Knots Heading: 304º
11:58 POS N43º 34´ 47´´ E003º 58´ 10´´
11:58 Gear Up: 111 Knots
11:58 Flaps:2 at 111 Knots
11:59 Flaps:1 at 129 Knots
11:59 Flaps:0 at 152 Knots
12:05 TOC
12:05 Fuel Weight: 2240 Lb
12:13 Wind:222º@033 Knots Heading: 236º Ground Speed: 216 Knots Altitude 11082 ft
12:18 TOD
12:18 Fuel Weight: 1808 Lb
12:26 Flaps:1 at 168 Knots
12:26 Flaps:2 at 156 Knots
12:27 Flaps:3 at 141 Knots
12:28 Wind:249º@008 Knots Heading: 275º Ground Speed: 132 Knots Altitude 1961 ft
12:28 Gear Down: 130 Knots
12:28 Flaps:4 at 110 Knots
12:29 Flaps:5 at 112 Knots
12:30 Flaps:6 at 114 Knots
12:33 TouchDown:Rate -99 ft/min Speed: 102 Knots
12:33 VATSIM:LFMP 161200Z 26011KT 9999 -RA FEW033 BKN053 09/06 Q1016 NOSIG
12:33 Land
12:33 Wind:249º@008 Knots
12:33 Heading: 339º
12:33 Flight Duration: 00:35
12:33 Landing Weight: 39070 Lbs
12:33 POS N42º 44´ 36´´ E002º 52´ 14´´
12:35 Parking brakes on
12:35 Block to Block Duration: 00:42
12:35 Final Fuel: 1518 Lbls
12:35 Spent Fuel: 1104 Lbls
12:35 Flight Length: 110 NM
12:35 TOD Land Length: 42 NM

Exportar CSV

Powered by Drupal - Modified by Danger4k